Terminal Aerodrome Forecast
Issued by NWS Duluth, MN

Home | Current Version | Previous Version | Text Only | Print | Product List | Glossary On
Versions: 1 2 3 4 5 6 7 8 9 10 11 12 13 14 15 16
000
FTUS43 KDLH 252335
TAFINL
TAF
KINL 252335Z 2600/2624 14008KT P6SM SCT200
     FM260300 14007KT P6SM BKN025
     FM260900 VRB03KT P6SM OVC017
     FM261600 VRB04KT P6SM SCT017 BKN025
     FM261900 31004KT P6SM SCT030 BKN200=

USA.gov is the U.S. government's official web portal to all federal, state and local government web resources and services.